Campanya meteocatpedra

Dades de l'estació automàtica Sant Llorenç Savall

?
?
Resum diari 21:30 TU
Dades diàries de l'estació meteorològica
Temperatura mitjana 20.1 °C
Temperatura màxima 26.5 °C 12:25 TU
Temperatura mínima 12.8 °C 4:48 TU
Humitat relativa mitjana 71%
Precipitació acumulada 0.0 mm
Ratxa màxima del vent (10 m) 23.4 km/h - 188º 14:37 TU

El tram horari està expressat en Temps Universal (TU). Cal sumar una hora en horari d'hivern i dues en horari d'estiu per passar a l'hora oficial.

Sant Llorenç Savall

Metadades estació meteorol´gica
Municipi Sant Llorenç Savall
Comarca Vallès Occidental
Altitud 528 m
Data alta 25.03.1998
Estat actual Operativa
Dades de període
Període
TU
TM
°C
TX
°C
TN
°C
HRM
%
PPT
mm
VVM (10 m)
km/h
DVM (10 m)
graus
VVX (10 m)
km/h
00:00 - 00:30 15.6 15.8 15.3 92 0.0 0.7 46 3.2
00:30 - 01:00 16.0 16.2 15.7 91 0.0 0.7 70 3.2
01:00 - 01:30 16.3 16.4 16.2 91 0.0 0.0 34 1.4
01:30 - 02:00 16.5 16.6 16.4 90 0.0 0.7 79 2.9
02:00 - 02:30 16.4 16.6 16.2 90 0.0 0.4 74 4.0
02:30 - 03:00 16.3 16.4 16.2 90 0.0 0.4 75 2.9
03:00 - 03:30 15.3 16.3 14.6 92 0.0 0.7 83 3.6
03:30 - 04:00 14.5 14.6 14.2 94 0.0 0.7 80 3.2
04:00 - 04:30 13.5 14.1 13.1 95 0.0 1.4 87 5.4
04:30 - 05:00 12.9 13.1 12.8 97 0.0 0.4 83 3.2
05:00 - 05:30 13.3 14.0 12.9 98 0.0 1.8 79 4.3
05:30 - 06:00 14.4 14.8 14.1 95 0.0 1.1 91 3.2
06:00 - 06:30 15.9 17.6 14.8 89 0.0 0.7 101 2.9
06:30 - 07:00 19.8 21.3 17.7 74 0.0 1.8 228 6.1
07:00 - 07:30 22.2 23.2 21.3 59 0.0 2.2 207 8.3
07:30 - 08:00 22.7 23.2 21.9 52 0.0 3.6 186 11.5
08:00 - 08:30 22.1 22.8 21.6 62 0.0 2.5 207 11.2
08:30 - 09:00 23.1 23.7 22.4 60 0.0 3.6 176 14.8
09:00 - 09:30 23.3 23.7 22.9 57 0.0 4.3 190 14.0
09:30 - 10:00 24.2 25.2 23.6 52 0.0 3.6 182 18.0
10:00 - 10:30 24.7 25.3 24.2 52 0.0 5.0 146 14.8
10:30 - 11:00 25.1 25.6 24.8 50 0.0 3.6 217 15.5
11:00 - 11:30 24.9 25.3 24.4 50 0.0 4.0 160 13.7
11:30 - 12:00 25.8 26.2 25.2 49 0.0 5.0 225 17.6
12:00 - 12:30 26.1 26.5 25.7 49 0.0 5.4 247 16.2
12:30 - 13:00 25.0 25.9 24.1 50 0.0 5.0 190 17.6
13:00 - 13:30 24.0 25.3 23.2 52 0.0 4.3 174 14.0
13:30 - 14:00 23.9 24.7 23.1 54 0.0 5.0 154 14.4
14:00 - 14:30 25.1 25.5 24.6 51 0.0 5.0 166 20.2
14:30 - 15:00 24.9 25.4 24.5 50 0.0 5.4 176 23.4
15:00 - 15:30 24.5 24.9 24.1 50 0.0 4.7 185 18.4
15:30 - 16:00 23.9 24.3 23.4 50 0.0 5.0 202 15.5
16:00 - 16:30 23.0 23.8 22.6 55 0.0 4.0 182 19.1
16:30 - 17:00 22.3 22.7 21.8 59 0.0 3.2 171 13.0
17:00 - 17:30 22.1 22.3 21.7 61 0.0 5.0 171 15.5
17:30 - 18:00 21.8 22.1 21.6 63 0.0 3.6 173 15.1
18:00 - 18:30 21.4 21.6 21.2 64 0.0 3.2 196 12.2
18:30 - 19:00 20.8 21.1 20.4 66 0.0 1.8 194 9.4
19:00 - 19:30 19.5 20.4 18.7 74 0.0 0.4 125 2.2
19:30 - 20:00 17.8 18.7 17.1 81 0.0 1.1 81 4.7
20:00 - 20:30 16.5 17.1 16.1 86 0.0 1.4 76 6.8
20:30 - 21:00 15.7 16.2 15.3 89 0.0 1.1 72 6.1
21:00 - 21:30 15.0 15.3 14.7 92 0.0 0.4 71 3.6
21:30 - 22:00 14.4 14.7 14.3 94 0.0 0.7 81 3.6

Les dades en taronja només han passat un control de qualitat automàtic. Resta pendent la seva validació definitiva.